Tuesday, February 9, 2016, 2:29 AM EST

KLKU, Louisa, Louisa County Airport/freeman Field

Location: Louisa, VA, United States Lat: 38.01
Local Time: 2:29 AM EST ( 7:29 GMT) Lon: -77.97
Time Zone: US/Eastern Elev: 492 ft

Show me the last for .
Show Decoded

2016-02-09 02:15 METAR KLKU 090715Z AUTO 00000KT 5SM BR SCT007 OVC030 02/02 A2955 RMK AO2 =
2016-02-09 01:55 METAR KLKU 090655Z AUTO 00000KT 7SM BKN007 BKN017 OVC032 02/02 A2956 RMK AO2 =
2016-02-09 01:35 METAR KLKU 090635Z AUTO 00000KT 10SM BKN007 OVC013 02/02 A2957 RMK AO2 =
2016-02-09 01:15 METAR KLKU 090615Z AUTO 00000KT 10SM SCT009 OVC013 02/02 A2958 RMK AO2 =
2016-02-09 00:55 METAR KLKU 090555Z AUTO 00000KT 7SM OVC015 02/02 A2958 RMK AO2 =
2016-02-09 00:35 METAR KLKU 090535Z AUTO 00000KT 10SM SCT005 OVC015 02/02 A2959 RMK AO2 =
2016-02-09 00:15 METAR KLKU 090515Z AUTO 00000KT 10SM BKN005 OVC015 02/02 A2960 RMK AO2 =
2016-02-08 23:55 METAR KLKU 090455Z AUTO 13004KT 7SM BKN005 BKN010 OVC018 03/02 A2960 RMK AO2
                 P0001 =
2016-02-08 23:35 METAR KLKU 090435Z AUTO 12004KT 10SM BKN007 OVC010 03/02 A2961 RMK AO2 P0001 =
2016-02-08 23:15 METAR KLKU 090415Z AUTO 13005KT 10SM OVC008 03/02 A2962 RMK AO2 =
2016-02-08 22:55 METAR KLKU 090355Z AUTO 11006KT 5SM RA OVC010 03/02 A2962 RMK AO2 P0003 =
2016-02-08 22:35 METAR KLKU 090335Z AUTO 00000KT 10SM RA OVC012 03/02 A2963 RMK AO2 P0001 =
2016-02-08 22:15 METAR KLKU 090315Z AUTO 15003KT 10SM DZ BKN015 OVC020 04/03 A2964 RMK AO2 =
2016-02-08 21:55 METAR KLKU 090255Z AUTO 14005KT 10SM SCT016 OVC020 04/03 A2964 RMK AO2 =
2016-02-08 21:35 METAR KLKU 090235Z AUTO 15005KT 10SM SCT016 BKN021 OVC055 04/03 A2965 RMK AO2 =
2016-02-08 21:15 METAR KLKU 090215Z AUTO 13003KT 10SM -DZ BKN023 BKN055 OVC080 04/03 A2965 RMK
                 AO2 =
2016-02-08 20:55 METAR KLKU 090155Z AUTO 00000KT 10SM DZ BKN025 OVC030 05/03 A2966 RMK AO2 =
2016-02-08 20:35 METAR KLKU 090135Z AUTO 17003KT 10SM DZ OVC027 05/02 A2966 RMK AO2 =
2016-02-08 20:15 METAR KLKU 090115Z AUTO 21004KT 10SM RA SCT022 BKN041 OVC055 05/02 A2966 RMK AO2
                 =
2016-02-08 19:55 METAR KLKU 090055Z AUTO 00000KT 10SM -DZ SCT043 OVC060 06/00 A2966 RMK AO2 =
2016-02-08 19:35 METAR KLKU 090035Z AUTO 00000KT 10SM SCT037 BKN060 OVC070 06/00 A2966 RMK AO2 =
2016-02-08 19:15 METAR KLKU 090015Z AUTO 00000KT 10SM BKN037 OVC095 07/00 A2966 RMK AO2 =
2016-02-08 18:55 METAR KLKU 082355Z AUTO 00000KT 10SM SCT043 SCT060 OVC085 07/M01 A2966 RMK AO2 =
2016-02-08 18:35 METAR KLKU 082335Z AUTO 17003KT 10SM BKN050 BKN060 OVC085 07/M01 A2967 RMK AO2 =
2016-02-08 18:15 METAR KLKU 082315Z AUTO 20004KT 10SM BKN050 OVC055 07/M02 A2967 RMK AO2 =
2016-02-08 17:55 METAR KLKU 082255Z AUTO 19005KT 10SM SCT032 SCT041 OVC055 08/M03 A2967 RMK AO2 =
2016-02-08 17:35 METAR KLKU 082235Z AUTO 14006KT 10SM SCT036 BKN046 OVC055 08/M04 A2966 RMK AO2 =
2016-02-08 17:15 METAR KLKU 082215Z AUTO 14007KT 100V170 10SM SCT035 BKN044 OVC075 08/M04 A2965
                 RMK AO2 =
2016-02-08 16:55 METAR KLKU 082155Z AUTO 14005KT 10SM SCT065 OVC075 08/M04 A2965 RMK AO2 =
2016-02-08 16:35 METAR KLKU 082135Z AUTO 15005KT 10SM BKN075 OVC100 08/M04 A2964 RMK AO2 =
2016-02-08 16:15 METAR KLKU 082115Z AUTO 13004KT 10SM OVC100 08/M04 A2964 RMK AO2 =
2016-02-08 15:55 METAR KLKU 082055Z AUTO 14005KT 10SM BKN100 09/M04 A2964 RMK AO2 =
2016-02-08 15:35 METAR KLKU 082035Z AUTO 13006KT 10SM SCT080 SCT100 09/M05 A2963 RMK AO2 =
2016-02-08 15:15 METAR KLKU 082015Z AUTO 11005KT 10SM SCT080 09/M05 A2964 RMK AO2 =
2016-02-08 14:55 METAR KLKU 081955Z AUTO 16003KT 10SM SCT090 09/M05 A2964 RMK AO2 =
2016-02-08 14:35 METAR KLKU 081935Z AUTO 00000KT 10SM SCT085 SCT110 08/M05 A2965 RMK AO2 =
2016-02-08 14:15 METAR KLKU 081915Z AUTO 00000KT 10SM SCT110 09/M06 A2966 RMK AO2 =
2016-02-08 13:55 METAR KLKU 081855Z AUTO 24004KT 10SM CLR 09/M05 A2967 RMK AO2 =
2016-02-08 13:35 METAR KLKU 081835Z AUTO 25006KT 10SM CLR 09/M05 A2968 RMK AO2 =
2016-02-08 13:15 METAR KLKU 081815Z AUTO 29003KT 10SM CLR 09/M06 A2969 RMK AO2 =
2016-02-08 12:55 METAR KLKU 081755Z AUTO 28004KT 10SM CLR 09/M05 A2969 RMK AO2 =
2016-02-08 12:35 METAR KLKU 081735Z AUTO 00000KT 10SM CLR 08/M06 A2971 RMK AO2 =
2016-02-08 12:15 METAR KLKU 081715Z AUTO 23003KT 10SM CLR 08/M05 A2972 RMK AO2 =
2016-02-08 11:55 METAR KLKU 081655Z AUTO 00000KT 10SM CLR 07/M06 A2973 RMK AO2 =
2016-02-08 11:35 METAR KLKU 081635Z AUTO 00000KT 10SM CLR 07/M05 A2974 RMK AO2 =
2016-02-08 11:15 METAR KLKU 081615Z AUTO 00000KT 10SM CLR 06/M05 A2976 RMK AO2 =
2016-02-08 10:55 METAR KLKU 081555Z AUTO 07003KT 10SM CLR 07/M04 A2975 RMK AO2 =
2016-02-08 10:35 METAR KLKU 081535Z AUTO 07004KT 10SM CLR 06/M04 A2977 RMK AO2 =
2016-02-08 10:15 METAR KLKU 081515Z AUTO 00000KT 10SM CLR 05/M04 A2977 RMK AO2 =
2016-02-08 09:55 METAR KLKU 081455Z AUTO 36003KT 10SM CLR 05/M04 A2978 RMK AO2 =
2016-02-08 09:35 METAR KLKU 081435Z AUTO 34003KT 10SM CLR 04/M04 A2978 RMK AO2 =
2016-02-08 09:15 METAR KLKU 081415Z AUTO 35004KT 10SM CLR 04/M04 A2978 RMK AO2 =
2016-02-08 08:55 METAR KLKU 081355Z AUTO 34003KT 10SM CLR 04/M04 A2977 RMK AO2 =
2016-02-08 08:35 METAR KLKU 081335Z AUTO 03003KT 10SM CLR 03/M04 A2978 RMK AO2 =
2016-02-08 08:15 METAR KLKU 081315Z AUTO 01003KT 10SM CLR 03/M04 A2978 RMK AO2 =
2016-02-08 07:55 METAR KLKU 081255Z AUTO 02003KT 10SM CLR 02/M04 A2978 RMK AO2 =
2016-02-08 07:35 METAR KLKU 081235Z AUTO 03004KT 10SM CLR 01/M05 A2978 RMK AO2 =
2016-02-08 07:15 METAR KLKU 081215Z AUTO 02004KT 10SM CLR 01/M05 A2979 RMK AO2 =
2016-02-08 06:55 METAR KLKU 081155Z AUTO 00000KT 10SM CLR M03/M06 A2980 RMK AO2 =
2016-02-08 06:35 METAR KLKU 081135Z AUTO 00000KT 10SM CLR M03/M06 A2979 RMK AO2 =
2016-02-08 06:15 METAR KLKU 081115Z AUTO 00000KT 10SM CLR M03/M06 A2979 RMK AO2 =
2016-02-08 05:55 METAR KLKU 081055Z AUTO 00000KT 10SM CLR M01/M06 A2978 RMK AO2 =
2016-02-08 05:35 METAR KLKU 081035Z AUTO 00000KT 10SM CLR M02/M06 A2978 RMK AO2 =
2016-02-08 05:15 METAR KLKU 081015Z AUTO 29003KT 10SM CLR M01/M06 A2978 RMK AO2 =
2016-02-08 04:55 METAR KLKU 080955Z AUTO 00000KT 10SM CLR M01/M06 A2976 RMK AO2 =
2016-02-08 04:35 METAR KLKU 080935Z AUTO 00000KT 10SM CLR M01/M06 A2975 RMK AO2 =
2016-02-08 04:15 METAR KLKU 080915Z AUTO 00000KT 10SM CLR 01/M05 A2976 RMK AO2 =
2016-02-08 03:55 METAR KLKU 080855Z AUTO 31004KT 10SM CLR 00/M05 A2977 RMK AO2 =
2016-02-08 03:35 METAR KLKU 080835Z AUTO 30004KT 10SM CLR 00/M06 A2976 RMK AO2 =
2016-02-08 03:15 METAR KLKU 080815Z AUTO 31004KT 10SM CLR 00/M06 A2976 RMK AO2 =
2016-02-08 02:55 METAR KLKU 080755Z AUTO 31003KT 10SM CLR 01/M06 A2975 RMK AO2 =
2016-02-08 02:35 METAR KLKU 080735Z AUTO 34003KT 10SM CLR 01/M05 A2976 RMK AO2 =

Support USWX by starting your Amazon purchase here.